Time;durP1;ratioP1;P1;durP2;ratioP2;P2;SDS_P1;SDS_P2;PMS_P1;PMS_P2;Temp;Humidity;BMP_temperature;BMP_pressure;BME280_temperature;BME280_humidity;BME280_pressure;Samples;Min_cycle;Max_cycle;Signal;HPM_P1;HPM_P2
2024/04/07 00:00:49;;;;;;;5.05;2.40;;;19.90;99.90;;;;;;5117368;27;20038;-82
2024/04/07 00:03:17;;;;;;;6.05;2.40;;;19.90;99.90;;;;;;5135161;27;20062;-82
2024/04/07 00:05:44;;;;;;;7.13;2.53;;;19.90;99.90;;;;;;5135481;27;20023;-82
2024/04/07 00:08:10;;;;;;;5.65;2.30;;;19.90;99.90;;;;;;5116763;27;20015;-82
2024/04/07 00:10:37;;;;;;;8.60;2.30;;;19.90;99.90;;;;;;5127395;27;20033;-83
2024/04/07 00:13:04;;;;;;;4.93;2.13;;;19.90;99.90;;;;;;5135250;27;20478;-82
2024/04/07 00:15:30;;;;;;;12.13;3.00;;;19.80;99.90;;;;;;5135438;27;20047;-84
2024/04/07 00:17:56;;;;;;;8.13;3.08;;;19.80;99.90;;;;;;5135419;27;20506;-82
2024/04/07 00:20:21;;;;;;;6.38;2.50;;;19.80;99.90;;;;;;5116975;27;20022;-84
2024/04/07 00:22:47;;;;;;;8.35;2.83;;;19.80;99.90;;;;;;5134823;27;20487;-82
2024/04/07 00:25:13;;;;;;;4.90;2.40;;;19.80;99.90;;;;;;5135254;27;20534;-83
2024/04/07 00:27:38;;;;;;;5.00;2.38;;;19.70;99.90;;;;;;5102882;27;20066;-83
2024/04/07 00:30:05;;;;;;;6.00;2.00;;;19.70;99.90;;;;;;5134386;27;20027;-83
2024/04/07 00:32:30;;;;;;;5.90;2.65;;;19.70;99.90;;;;;;5134708;27;20031;-83
2024/04/07 00:34:56;;;;;;;8.07;2.65;;;19.80;99.90;;;;;;5130942;27;20159;-84
2024/04/07 00:37:22;;;;;;;5.40;2.78;;;19.70;99.90;;;;;;5115415;27;20387;-84
2024/04/07 00:39:47;;;;;;;12.50;3.17;;;19.70;99.90;;;;;;5107709;28;20020;-83
2024/04/07 00:42:13;;;;;;;8.38;2.88;;;19.70;99.90;;;;;;5109928;27;20360;-83
2024/04/07 00:44:39;;;;;;;10.93;2.83;;;19.70;99.90;;;;;;5134824;27;20027;-83
2024/04/07 00:47:05;;;;;;;7.75;2.50;;;19.70;99.90;;;;;;5134178;27;20030;-82
2024/04/07 00:49:31;;;;;;;7.35;2.28;;;19.70;99.90;;;;;;5116131;27;20011;-84
2024/04/07 00:51:58;;;;;;;5.07;2.67;;;19.70;99.90;;;;;;5134185;27;20417;-82
2024/04/07 00:54:25;;;;;;;9.48;2.90;;;19.70;99.90;;;;;;5134922;27;20516;-84
2024/04/07 00:56:51;;;;;;;11.68;3.10;;;19.70;99.90;;;;;;5116202;27;20466;-83
2024/04/07 00:59:17;;;;;;;10.50;2.55;;;19.70;99.90;;;;;;5115872;27;20051;-84
2024/04/07 01:01:43;;;;;;;9.07;3.20;;;19.70;99.90;;;;;;5120376;27;20059;-83
2024/04/07 01:04:08;;;;;;;6.28;2.95;;;19.60;99.90;;;;;;5134347;27;20056;-82
2024/04/07 01:06:35;;;;;;;6.28;2.60;;;19.60;99.90;;;;;;5115429;27;20027;-83
2024/04/07 01:09:01;;;;;;;6.57;2.95;;;19.70;99.90;;;;;;5113714;27;20091;-83
2024/04/07 01:11:28;;;;;;;7.03;2.63;;;19.60;99.90;;;;;;5127532;27;20094;-83
2024/04/07 01:13:53;;;;;;;8.10;2.90;;;19.60;99.90;;;;;;5123465;27;20027;-83
2024/04/07 01:16:20;;;;;;;9.32;3.13;;;19.60;99.90;;;;;;5133812;27;20083;-83
2024/04/07 01:18:46;;;;;;;6.88;2.40;;;19.60;99.90;;;;;;5115897;27;20674;-83
2024/04/07 01:21:12;;;;;;;8.35;2.88;;;19.60;99.90;;;;;;5115389;27;20041;-82
2024/04/07 01:23:38;;;;;;;10.13;2.88;;;19.50;99.90;;;;;;5115682;27;20129;-83
2024/04/07 01:26:04;;;;;;;12.00;3.28;;;19.50;99.90;;;;;;5115576;27;20076;-83
2024/04/07 01:28:30;;;;;;;11.70;3.15;;;19.50;99.90;;;;;;5115416;27;20023;-83
2024/04/07 01:30:55;;;;;;;6.47;2.30;;;19.50;99.90;;;;;;5115231;27;20387;-84
2024/04/07 01:33:21;;;;;;;13.95;2.78;;;19.50;99.90;;;;;;5133204;27;20039;-84
2024/04/07 01:35:48;;;;;;;9.98;2.55;;;19.40;99.90;;;;;;5110440;27;20022;-84
2024/04/07 01:38:16;;;;;;;8.82;3.28;;;19.40;99.90;;;;;;5134176;27;20016;-85
2024/04/07 01:40:44;;;;;;;8.35;2.63;;;19.30;99.90;;;;;;5113260;27;20019;-82
2024/04/07 01:43:10;;;;;;;9.38;2.67;;;19.40;99.90;;;;;;5132654;27;20041;-83
2024/04/07 01:45:35;;;;;;;11.75;2.65;;;19.30;99.90;;;;;;5133222;27;20019;-82
2024/04/07 01:48:01;;;;;;;11.65;2.67;;;19.40;99.90;;;;;;5133340;27;20051;-84
2024/04/07 01:50:27;;;;;;;9.32;2.33;;;19.40;99.90;;;;;;5115063;27;20015;-83
2024/04/07 01:52:53;;;;;;;9.20;2.75;;;19.40;99.90;;;;;;5133103;27;20063;-84
2024/04/07 01:55:18;;;;;;;13.48;3.22;;;19.40;99.90;;;;;;5130704;27;20015;-83
2024/04/07 01:57:44;;;;;;;7.95;2.85;;;19.40;99.90;;;;;;5132624;27;20034;-82
2024/04/07 02:00:10;;;;;;;8.25;2.47;;;19.40;99.90;;;;;;5133623;27;20043;-84
2024/04/07 02:02:37;;;;;;;8.38;2.83;;;19.30;99.90;;;;;;5133070;27;20360;-83
2024/04/07 02:05:05;;;;;;;9.63;2.80;;;19.30;99.90;;;;;;5133245;27;20409;-83
2024/04/07 02:07:34;;;;;;;8.70;2.70;;;19.30;99.90;;;;;;5133317;27;20116;-83
2024/04/07 02:10:02;;;;;;;5.55;2.58;;;19.30;99.90;;;;;;5122653;27;20041;-83
2024/04/07 02:12:28;;;;;;;6.40;2.03;;;19.30;99.90;;;;;;5115353;27;20019;-83
2024/04/07 02:14:54;;;;;;;10.98;2.47;;;19.30;99.90;;;;;;5132946;27;20026;-82
2024/04/07 02:17:20;;;;;;;10.48;3.00;;;19.20;99.90;;;;;;5133419;27;20606;-83
2024/04/07 02:19:51;;;;;;;9.70;2.78;;;19.20;99.90;;;;;;5114456;28;20072;-85
2024/04/07 02:22:18;;;;;;;7.90;2.50;;;19.20;99.90;;;;;;5104995;28;20089;-81
2024/04/07 02:24:44;;;;;;;7.07;2.63;;;19.20;99.90;;;;;;5129505;27;20047;-83
2024/04/07 02:27:09;;;;;;;8.88;2.45;;;19.20;99.90;;;;;;5114672;27;20054;-84
2024/04/07 02:29:35;;;;;;;6.40;2.60;;;19.20;99.90;;;;;;5133034;27;20035;-83
2024/04/07 02:32:01;;;;;;;6.95;2.47;;;19.10;99.90;;;;;;5114293;27;20027;-85
2024/04/07 02:34:27;;;;;;;8.60;1.95;;;19.10;99.90;;;;;;5132503;27;20097;-82
2024/04/07 02:36:53;;;;;;;8.13;2.40;;;19.20;99.90;;;;;;5114664;28;20054;-83
2024/04/07 02:39:19;;;;;;;11.50;2.35;;;19.20;99.90;;;;;;5132171;27;20019;-84
2024/04/07 02:41:46;;;;;;;8.10;2.58;;;19.10;99.90;;;;;;5133150;27;20220;-83
2024/04/07 02:44:12;;;;;;;11.13;2.45;;;19.00;99.90;;;;;;5132350;27;20066;-83
2024/04/07 02:49:22;;;;;;;10.43;2.03;;;19.10;99.90;;;;;;5132057;28;20034;-86
2024/04/07 02:51:48;;;;;;;5.15;1.67;;;19.00;99.90;;;;;;5114560;28;20019;-83
2024/04/07 02:54:13;;;;;;;3.08;1.45;;;18.90;99.90;;;;;;5134578;27;20103;-83
2024/04/07 02:56:39;;;;;;;3.90;1.45;;;18.80;99.90;;;;;;5137296;27;20046;-82
2024/04/07 02:59:05;;;;;;;5.53;2.03;;;18.80;99.90;;;;;;5136488;27;20067;-83
2024/04/07 03:01:31;;;;;;;3.85;0.95;;;18.80;99.90;;;;;;5118547;27;20019;-82
2024/04/07 03:03:56;;;;;;;5.03;0.50;;;18.70;99.90;;;;;;5137149;27;20027;-82
2024/04/07 03:06:22;;;;;;;3.45;0.77;;;18.60;99.90;;;;;;5137092;27;20384;-83
2024/04/07 03:08:49;;;;;;;1.83;0.47;;;18.60;99.90;;;;;;5136335;27;20079;-83
2024/04/07 03:11:15;;;;;;;3.40;0.60;;;18.50;99.90;;;;;;5118482;27;20505;-82
2024/04/07 03:13:41;;;;;;;4.50;0.65;;;18.60;99.90;;;;;;5137073;27;20102;-83
2024/04/07 03:16:10;;;;;;;3.08;0.68;;;18.50;99.90;;;;;;5136813;27;20047;-81
2024/04/07 03:18:36;;;;;;;5.78;0.75;;;18.50;99.90;;;;;;5118148;27;20051;-82
2024/04/07 03:21:05;;;;;;;4.05;0.60;;;18.50;99.90;;;;;;5136309;27;20075;-81
2024/04/07 03:23:31;;;;;;;1.20;0.40;;;18.40;99.90;;;;;;5089779;27;21381;-81
2024/04/07 03:25:57;;;;;;;1.27;0.50;;;18.40;99.90;;;;;;5109298;27;20015;-82
2024/04/07 03:28:22;;;;;;;0.50;0.47;;;18.50;99.90;;;;;;5109592;27;20034;-82
2024/04/07 03:30:48;;;;;;;1.27;0.40;;;18.50;99.90;;;;;;5109766;27;20020;-82
2024/04/07 03:33:14;;;;;;;3.55;0.63;;;18.50;99.90;;;;;;5109792;27;20028;-81
2024/04/07 03:35:40;;;;;;;1.00;0.45;;;18.40;99.90;;;;;;5110286;27;20396;-82
2024/04/07 03:38:06;;;;;;;0.95;0.40;;;18.30;99.90;;;;;;5110682;27;20472;-82
2024/04/07 03:40:31;;;;;;;2.70;0.60;;;18.30;99.90;;;;;;5109354;27;20019;-83
2024/04/07 03:42:57;;;;;;;3.05;0.68;;;18.20;99.90;;;;;;5109256;27;20019;-80
2024/04/07 03:45:23;;;;;;;0.88;0.40;;;18.20;99.90;;;;;;5109599;27;20020;-84
2024/04/07 03:47:48;;;;;;;2.00;0.40;;;18.10;99.90;;;;;;5109434;27;20016;-82
2024/04/07 03:50:14;;;;;;;1.85;0.45;;;18.10;99.90;;;;;;5110037;27;20035;-84
2024/04/07 03:52:40;;;;;;;2.13;0.50;;;18.10;99.90;;;;;;5109621;27;20042;-83
2024/04/07 03:55:06;;;;;;;1.27;0.30;;;18.20;99.90;;;;;;5090408;27;20007;-82
2024/04/07 03:57:32;;;;;;;2.35;0.47;;;18.20;99.90;;;;;;5109949;27;20031;-82
2024/04/07 03:59:58;;;;;;;2.13;0.40;;;18.10;99.90;;;;;;5109628;27;20512;-82
2024/04/07 04:02:30;;;;;;;0.50;0.30;;;18.00;99.90;;;;;;5109023;27;20103;-82
2024/04/07 04:05:02;;;;;;;1.58;0.60;;;18.00;99.90;;;;;;5108362;27;20027;-81
2024/04/07 04:07:29;;;;;;;0.80;0.25;;;18.00;99.90;;;;;;5108941;27;20037;-82
2024/04/07 04:09:59;;;;;;;1.92;0.73;;;17.90;99.90;;;;;;5110210;27;20120;-81
2024/04/07 04:12:26;;;;;;;1.27;0.30;;;18.00;99.90;;;;;;5091102;28;20160;-82
2024/04/07 04:14:53;;;;;;;0.88;0.40;;;17.90;99.90;;;;;;5108555;27;22772;-82
2024/04/07 04:17:19;;;;;;;3.40;0.55;;;17.90;99.90;;;;;;5110170;27;20019;-82
2024/04/07 04:19:44;;;;;;;2.42;0.40;;;18.00;99.90;;;;;;5108552;28;20535;-81
2024/04/07 04:22:10;;;;;;;3.17;0.25;;;18.00;99.90;;;;;;5089832;28;20049;-81
2024/04/07 04:24:36;;;;;;;0.50;0.20;;;18.00;99.90;;;;;;5109144;27;20035;-82
2024/04/07 04:27:03;;;;;;;0.77;0.40;;;18.00;99.90;;;;;;5109105;27;20361;-82
2024/04/07 04:29:30;;;;;;;2.22;0.30;;;18.00;99.90;;;;;;5109114;27;20035;-82
2024/04/07 04:31:56;;;;;;;0.45;0.30;;;18.00;99.90;;;;;;5108066;28;20054;-82
2024/04/07 04:34:23;;;;;;;3.45;0.20;;;18.00;99.90;;;;;;5089901;27;20054;-80
2024/04/07 04:36:50;;;;;;;1.63;0.60;;;18.00;99.90;;;;;;5109316;27;20417;-80
2024/04/07 04:39:16;;;;;;;1.27;0.32;;;18.00;99.90;;;;;;5110543;27;20026;-81
2024/04/07 04:41:45;;;;;;;3.00;0.43;;;18.10;99.90;;;;;;5107015;27;20032;-82
2024/04/07 04:44:12;;;;;;;0.57;0.30;;;18.10;99.90;;;;;;5088599;28;20161;-81
2024/04/07 04:46:40;;;;;;;2.15;0.40;;;18.00;99.90;;;;;;5108320;27;20030;-82
2024/04/07 04:49:10;;;;;;;1.48;0.52;;;18.00;99.90;;;;;;5089939;27;20341;-81
2024/04/07 04:51:35;;;;;;;0.68;0.40;;;18.00;99.90;;;;;;5108469;27;20403;-82
2024/04/07 04:54:02;;;;;;;1.58;0.40;;;18.00;99.90;;;;;;5108072;27;20012;-79
2024/04/07 04:56:28;;;;;;;2.28;0.40;;;18.00;99.90;;;;;;5090410;28;20019;-81
2024/04/07 04:58:56;;;;;;;0.80;0.25;;;18.00;99.90;;;;;;5109270;27;20016;-81
2024/04/07 05:01:23;;;;;;;0.60;0.40;;;18.00;99.90;;;;;;5089544;28;20035;-80
2024/04/07 05:03:48;;;;;;;2.00;0.40;;;18.00;99.90;;;;;;5106914;27;20051;-81
2024/04/07 05:06:16;;;;;;;3.33;0.52;;;17.90;99.90;;;;;;5107125;27;20030;-82
2024/04/07 05:08:42;;;;;;;3.42;0.40;;;17.90;99.90;;;;;;5108931;27;20040;-81
2024/04/07 05:11:08;;;;;;;1.02;0.50;;;17.90;99.90;;;;;;5108190;27;20019;-81
2024/04/07 05:13:34;;;;;;;1.27;0.57;;;17.80;99.90;;;;;;5107551;27;20144;-81
2024/04/07 05:16:00;;;;;;;1.38;0.55;;;17.70;99.90;;;;;;5107235;28;20024;-82
2024/04/07 05:18:28;;;;;;;2.22;0.35;;;17.70;99.90;;;;;;5108610;27;20470;-78
2024/04/07 05:20:55;;;;;;;2.03;0.40;;;17.70;99.90;;;;;;5107488;28;20023;-82
2024/04/07 05:23:24;;;;;;;2.15;0.55;;;17.80;99.90;;;;;;5088912;28;20118;-78
2024/04/07 05:25:51;;;;;;;2.05;0.45;;;17.80;99.90;;;;;;5106463;27;20148;-79
2024/04/07 05:28:16;;;;;;;0.98;0.30;;;17.80;99.90;;;;;;5088554;28;20042;-80
2024/04/07 05:30:42;;;;;;;0.52;0.28;;;17.80;99.90;;;;;;5089253;28;20467;-80
2024/04/07 05:33:08;;;;;;;1.30;0.57;;;17.70;99.90;;;;;;5108028;27;20429;-79
2024/04/07 05:35:34;;;;;;;4.88;0.57;;;17.80;99.90;;;;;;5087981;28;20539;-79
2024/04/07 05:38:01;;;;;;;2.40;0.50;;;17.80;99.90;;;;;;5088239;28;20412;-81
2024/04/07 05:40:26;;;;;;;1.73;0.22;;;17.80;99.90;;;;;;5088153;28;20087;-80
2024/04/07 05:42:53;;;;;;;1.60;0.30;;;17.80;99.90;;;;;;5089742;28;20502;-81
2024/04/07 05:45:19;;;;;;;1.73;0.50;;;17.80;99.90;;;;;;5106969;27;20023;-80
2024/04/07 05:47:52;;;;;;;1.63;0.52;;;17.80;99.90;;;;;;5106904;27;20365;-79
2024/04/07 05:50:18;;;;;;;2.13;0.82;;;17.80;99.90;;;;;;5088625;28;20027;-80
2024/04/07 05:52:44;;;;;;;2.33;0.70;;;17.90;99.90;;;;;;5107556;27;20051;-79
2024/04/07 05:55:11;;;;;;;1.17;0.40;;;17.90;99.90;;;;;;5086401;28;20100;-82
2024/04/07 05:57:38;;;;;;;2.08;0.65;;;17.90;99.90;;;;;;5086810;28;20085;-81
2024/04/07 06:00:10;;;;;;;1.42;0.57;;;17.80;99.90;;;;;;5088546;28;20031;-80
2024/04/07 06:02:36;;;;;;;1.02;0.47;;;17.90;99.90;;;;;;5087826;28;20076;-79
2024/04/07 06:05:02;;;;;;;1.52;0.50;;;17.90;99.90;;;;;;5088528;27;20470;-81
2024/04/07 06:07:29;;;;;;;2.78;0.70;;;17.90;99.90;;;;;;5107736;27;20044;-79
2024/04/07 06:09:55;;;;;;;2.42;0.68;;;18.00;99.90;;;;;;5108615;27;20042;-79
2024/04/07 06:12:22;;;;;;;2.80;0.70;;;18.10;99.90;;;;;;5088948;28;20459;-80
2024/04/07 06:14:48;;;;;;;1.20;0.88;;;18.10;99.90;;;;;;5106433;27;20031;-78
2024/04/07 06:17:14;;;;;;;1.42;0.47;;;18.10;99.90;;;;;;5106052;27;20016;-78
2024/04/07 06:19:40;;;;;;;2.22;0.75;;;18.20;99.90;;;;;;5107950;28;20051;-78
2024/04/07 06:22:06;;;;;;;2.70;0.85;;;18.20;99.90;;;;;;5107005;27;20104;-79
2024/04/07 06:24:32;;;;;;;2.20;0.70;;;18.30;99.90;;;;;;5087811;28;20055;-80
2024/04/07 06:26:58;;;;;;;2.97;0.93;;;18.30;99.90;;;;;;5088695;27;20036;-78
2024/04/07 06:29:23;;;;;;;4.95;1.05;;;18.40;99.90;;;;;;5107741;27;20032;-78
2024/04/07 06:31:49;;;;;;;5.13;0.90;;;18.40;99.90;;;;;;5087889;28;20024;-81
2024/04/07 06:34:15;;;;;;;3.22;1.10;;;18.40;99.90;;;;;;5106002;27;20099;-78
2024/04/07 06:36:41;;;;;;;3.38;1.13;;;18.40;99.90;;;;;;5106038;27;20019;-78
2024/04/07 06:39:10;;;;;;;1.73;0.60;;;18.50;99.90;;;;;;5107029;28;22771;-82
2024/04/07 06:41:35;;;;;;;2.33;0.82;;;18.40;99.90;;;;;;5087463;28;20037;-82
2024/04/07 06:44:02;;;;;;;3.47;0.80;;;18.40;99.90;;;;;;5085472;28;20481;-81
2024/04/07 06:46:27;;;;;;;3.28;0.82;;;18.30;99.90;;;;;;5088129;28;20043;-82
2024/04/07 06:48:54;;;;;;;5.28;1.05;;;18.30;99.90;;;;;;5107316;28;20497;-81
2024/04/07 06:51:20;;;;;;;4.18;1.15;;;18.30;99.90;;;;;;5107235;27;20031;-79
2024/04/07 06:53:47;;;;;;;3.45;1.00;;;18.40;99.90;;;;;;5105577;28;20388;-80
2024/04/07 06:56:13;;;;;;;4.80;0.90;;;18.30;99.90;;;;;;5106542;28;20023;-80
2024/04/07 06:58:38;;;;;;;3.58;1.15;;;18.40;99.90;;;;;;5106315;28;20441;-80
2024/04/07 07:01:04;;;;;;;3.83;1.30;;;18.40;99.90;;;;;;5105937;28;20028;-80
2024/04/07 07:03:30;;;;;;;5.88;1.58;;;18.30;99.90;;;;;;5106191;28;20059;-84
2024/04/07 07:05:56;;;;;;;4.05;1.50;;;18.40;99.90;;;;;;5106113;28;20102;-80
2024/04/07 07:08:21;;;;;;;3.88;1.27;;;18.40;99.90;;;;;;5105224;28;20059;-77
2024/04/07 07:11:00;;;;;;;3.30;1.00;;;18.30;99.90;;;;;;5106631;28;22876;-80
2024/04/07 07:13:27;;;;;;;4.72;1.08;;;18.30;99.90;;;;;;5086685;28;20515;-81
2024/04/07 07:15:53;;;;;;;3.60;1.77;;;18.40;99.90;;;;;;5104973;28;20024;-80
2024/04/07 07:18:19;;;;;;;3.00;1.20;;;18.40;99.90;;;;;;5105494;28;20110;-80
2024/04/07 07:20:45;;;;;;;6.95;1.38;;;18.40;99.90;;;;;;5106544;28;20110;-82
2024/04/07 07:23:12;;;;;;;3.13;1.20;;;18.50;99.90;;;;;;5087579;28;20039;-85
2024/04/07 07:25:39;;;;;;;3.83;1.25;;;18.50;99.90;;;;;;5106289;28;20026;-79
2024/04/07 07:28:05;;;;;;;5.05;1.23;;;18.50;99.90;;;;;;5104040;28;20042;-85
2024/04/07 07:30:32;;;;;;;5.53;1.30;;;18.50;99.90;;;;;;5105713;28;20453;-81
2024/04/07 07:32:57;;;;;;;3.03;1.05;;;18.50;99.90;;;;;;5085982;28;20023;-82
2024/04/07 07:35:23;;;;;;;6.05;1.17;;;18.50;99.90;;;;;;5086996;28;20042;-79
2024/04/07 07:37:49;;;;;;;4.63;1.23;;;18.60;99.90;;;;;;5104854;28;20024;-80
2024/04/07 07:40:15;;;;;;;4.55;1.23;;;18.60;99.90;;;;;;5105453;28;20028;-79
2024/04/07 07:42:41;;;;;;;4.97;1.73;;;18.60;99.90;;;;;;5109629;27;20051;-79
2024/04/07 07:45:09;;;;;;;5.13;1.33;;;18.70;99.90;;;;;;5110806;27;20035;-80
2024/04/07 07:47:35;;;;;;;3.30;1.10;;;18.70;99.90;;;;;;5109053;28;20032;-82
2024/04/07 07:50:01;;;;;;;4.15;1.20;;;18.80;99.90;;;;;;5109939;27;20499;-82
2024/04/07 07:52:26;;;;;;;4.55;1.48;;;18.80;99.90;;;;;;5090444;28;20027;-85
2024/04/07 07:54:52;;;;;;;2.17;1.08;;;18.80;99.90;;;;;;5090064;27;20023;-85
2024/04/07 07:57:18;;;;;;;3.15;1.42;;;18.90;99.90;;;;;;5092219;28;20352;-88
2024/04/07 07:59:47;;;;;;;3.25;1.42;;;19.10;99.90;;;;;;5092621;28;20042;-78
2024/04/07 08:02:13;;;;;;;3.03;1.63;;;19.20;99.90;;;;;;5110210;27;20509;-83
2024/04/07 08:04:39;;;;;;;3.53;1.70;;;19.30;99.90;;;;;;5090803;28;20115;-83
2024/04/07 08:07:04;;;;;;;5.25;1.50;;;19.40;99.90;;;;;;5089866;27;20372;-82
2024/04/07 08:09:32;;;;;;;4.10;1.48;;;19.40;99.90;;;;;;5108384;27;20027;-83
2024/04/07 08:11:59;;;;;;;5.00;1.48;;;19.50;99.90;;;;;;5108966;27;20033;-83
2024/04/07 08:14:25;;;;;;;5.32;1.67;;;19.50;99.90;;;;;;5108803;27;20031;-83
2024/04/07 08:16:50;;;;;;;2.63;1.30;;;19.60;99.90;;;;;;5108975;27;20081;-84
2024/04/07 08:19:17;;;;;;;2.03;1.08;;;19.50;99.90;;;;;;5090748;28;21360;-84
2024/04/07 08:21:43;;;;;;;6.07;1.95;;;19.70;99.90;;;;;;5107559;27;20088;-81
2024/04/07 08:24:09;;;;;;;2.42;1.20;;;19.70;99.90;;;;;;5108091;27;20031;-82
2024/04/07 08:26:35;;;;;;;4.65;1.35;;;19.70;99.90;;;;;;5107989;27;20043;-83
2024/04/07 08:29:00;;;;;;;4.78;1.25;;;19.60;99.90;;;;;;5108826;27;20123;-83
2024/04/07 08:31:26;;;;;;;1.73;1.00;;;19.70;99.90;;;;;;5108365;27;20035;-83
2024/04/07 08:33:52;;;;;;;5.63;1.80;;;19.70;99.90;;;;;;5107523;27;20031;-83
2024/04/07 08:36:18;;;;;;;4.25;1.52;;;19.80;99.90;;;;;;5106808;27;20024;-80
2024/04/07 08:38:44;;;;;;;7.53;1.70;;;19.90;99.90;;;;;;5107859;27;20057;-81
2024/04/07 08:41:11;;;;;;;2.85;1.30;;;19.80;99.90;;;;;;5109442;27;20039;-81
2024/04/07 08:43:38;;;;;;;2.47;1.55;;;19.90;99.90;;;;;;5108848;27;20028;-84
2024/04/07 08:46:11;;;;;;;4.22;1.38;;;20.00;99.90;;;;;;5088776;28;20106;-85
2024/04/07 08:48:50;;;;;;;5.50;1.00;;;20.00;99.90;;;;;;5108683;27;20018;-80
2024/04/07 08:51:17;;;;;;;4.20;1.50;;;20.10;99.90;;;;;;5089281;28;20031;-80
2024/04/07 08:53:44;;;;;;;3.42;1.33;;;20.30;99.90;;;;;;5088533;28;20095;-82
2024/04/07 08:56:12;;;;;;;4.65;1.13;;;20.30;99.90;;;;;;5107960;27;20024;-78
2024/04/07 08:58:40;;;;;;;3.83;1.20;;;20.40;99.90;;;;;;5107130;27;20076;-77
2024/04/07 09:01:11;;;;;;;2.38;1.05;;;20.40;99.90;;;;;;5109147;27;20020;-79
2024/04/07 09:03:37;;;;;;;5.70;1.10;;;20.50;99.90;;;;;;5108530;27;20038;-79
2024/04/07 09:06:04;;;;;;;6.50;1.58;;;20.60;99.90;;;;;;5108203;27;20372;-78
2024/04/07 09:08:30;;;;;;;2.83;1.23;;;20.50;99.90;;;;;;5107371;27;20027;-81
2024/04/07 09:10:56;;;;;;;6.90;1.52;;;20.50;99.90;;;;;;5107813;27;20469;-80
2024/04/07 09:13:22;;;;;;;3.28;1.05;;;20.40;99.90;;;;;;5107335;27;20540;-84
2024/04/07 09:15:48;;;;;;;3.15;1.48;;;20.40;99.90;;;;;;5109584;27;20027;-79
2024/04/07 09:18:14;;;;;;;7.45;1.48;;;20.40;99.90;;;;;;5089978;28;20047;-81
2024/04/07 09:20:40;;;;;;;7.20;1.60;;;20.30;99.90;;;;;;5109843;27;20072;-86
2024/04/07 09:23:06;;;;;;;8.18;1.20;;;20.10;99.90;;;;;;5090261;27;20028;-85
2024/04/07 09:25:32;;;;;;;2.72;1.10;;;20.30;99.90;;;;;;5109364;27;20076;-81
2024/04/07 09:27:58;;;;;;;4.95;1.20;;;20.30;99.90;;;;;;5106947;27;20475;-83
2024/04/07 09:30:25;;;;;;;3.33;0.85;;;20.40;99.90;;;;;;5108250;27;20646;-83
2024/04/07 09:32:51;;;;;;;4.45;1.20;;;20.50;99.90;;;;;;5107166;27;20096;-86
2024/04/07 09:35:17;;;;;;;5.28;1.25;;;20.70;99.90;;;;;;5107380;28;20680;-82
2024/04/07 09:37:43;;;;;;;3.63;1.30;;;20.80;99.90;;;;;;5089676;28;20066;-86
2024/04/07 09:40:09;;;;;;;3.60;1.92;;;20.90;99.90;;;;;;5089787;28;20047;-86
2024/04/07 09:42:38;;;;;;;3.15;1.10;;;20.90;99.90;;;;;;5107326;27;20031;-85
2024/04/07 09:45:07;;;;;;;4.53;1.20;;;20.90;99.90;;;;;;5089541;27;20039;-79
2024/04/07 09:47:35;;;;;;;3.75;1.10;;;20.90;99.90;;;;;;5107429;27;20016;-88
2024/04/07 09:50:26;;;;;;;3.33;0.98;;;20.90;99.90;;;;;;5108471;28;20031;-88
2024/04/07 09:53:00;;;;;;;3.97;1.30;;;21.00;99.90;;;;;;5108156;27;20109;-85
2024/04/07 09:55:30;;;;;;;3.88;1.30;;;21.30;99.90;;;;;;5108503;28;20028;-84
2024/04/07 09:57:56;;;;;;;4.18;1.30;;;21.40;99.90;;;;;;5106512;28;20186;-88
2024/04/07 10:00:22;;;;;;;3.33;0.88;;;21.60;99.90;;;;;;5107580;28;20031;-83
2024/04/07 10:02:50;;;;;;;4.78;1.65;;;21.70;99.90;;;;;;5106662;28;20361;-85
2024/04/07 10:05:16;;;;;;;5.05;1.48;;;21.70;99.90;;;;;;5108370;28;20490;-87
2024/04/07 10:07:42;;;;;;;4.35;1.17;;;21.70;99.90;;;;;;5108390;27;20014;-87
2024/04/07 10:10:10;;;;;;;2.20;0.82;;;21.70;99.90;;;;;;5108139;27;20110;-83
2024/04/07 10:12:36;;;;;;;4.47;1.10;;;21.80;99.90;;;;;;5108044;27;20040;-86
2024/04/07 10:15:03;;;;;;;3.92;0.75;;;21.80;99.90;;;;;;5090690;27;20031;-87
2024/04/07 10:17:30;;;;;;;3.45;1.08;;;22.00;99.90;;;;;;5107272;28;20567;-86
2024/04/07 10:19:58;;;;;;;2.50;0.90;;;22.10;99.90;;;;;;5088847;28;20080;-85
2024/04/07 10:22:26;;;;;;;3.22;0.90;;;22.20;99.90;;;;;;5106661;27;20102;-78
2024/04/07 10:24:53;;;;;;;6.63;1.55;;;22.20;99.90;;;;;;5106016;28;20038;-80
2024/04/07 10:27:24;;;;;;;3.95;0.85;;;22.10;99.90;;;;;;5107661;27;20034;-79
2024/04/07 10:29:58;;;;;;;4.07;1.50;;;22.20;99.90;;;;;;5106346;28;20039;-80
2024/04/07 10:32:34;;;;;;;3.53;1.00;;;22.40;99.90;;;;;;5107231;27;20091;-80
2024/04/07 10:35:12;;;;;;;3.38;0.88;;;22.50;99.90;;;;;;5088575;28;20023;-80
2024/04/07 10:37:40;;;;;;;2.40;0.90;;;22.60;99.90;;;;;;5105963;28;20024;-84
2024/04/07 10:40:08;;;;;;;3.22;1.42;;;22.50;99.90;;;;;;5106838;28;20536;-81
2024/04/07 10:42:35;;;;;;;4.60;1.10;;;22.60;99.90;;;;;;5106952;28;20023;-79
2024/04/07 10:45:05;;;;;;;4.43;1.30;;;22.40;99.90;;;;;;5106805;27;20046;-81
2024/04/07 10:47:32;;;;;;;3.22;1.45;;;22.40;99.90;;;;;;5106369;28;20092;-83
2024/04/07 10:49:58;;;;;;;2.33;0.85;;;22.40;99.90;;;;;;5106462;28;20028;-81
2024/04/07 10:52:26;;;;;;;4.45;0.90;;;22.40;99.90;;;;;;5088587;28;20031;-82
2024/04/07 10:54:56;;;;;;;2.63;1.23;;;22.40;99.90;;;;;;5106575;28;20028;-80
2024/04/07 10:57:22;;;;;;;3.97;1.30;;;22.50;99.90;;;;;;5106833;28;20040;-77
2024/04/07 10:59:48;;;;;;;2.95;1.15;;;22.90;99.90;;;;;;5087578;28;20089;-84
2024/04/07 11:02:14;;;;;;;3.30;0.95;;;22.90;99.90;;;;;;5105947;28;20475;-84
2024/04/07 11:04:41;;;;;;;4.25;1.02;;;22.90;99.90;;;;;;5087140;28;20093;-81
2024/04/07 11:07:08;;;;;;;5.15;1.08;;;23.10;99.90;;;;;;5107949;28;20098;-82
2024/04/07 11:09:34;;;;;;;3.20;1.10;;;23.20;99.90;;;;;;5106681;28;20051;-81
2024/04/07 11:12:00;;;;;;;2.65;1.02;;;23.30;99.90;;;;;;5105606;28;20375;-79
2024/04/07 11:14:30;;;;;;;2.80;0.93;;;23.40;99.90;;;;;;5106488;28;20030;-84
2024/04/07 11:17:00;;;;;;;2.67;0.82;;;23.40;99.90;;;;;;5111317;27;20430;-85
2024/04/07 11:19:26;;;;;;;1.95;0.90;;;23.40;99.90;;;;;;5112892;27;20076;-87
2024/04/07 11:21:52;;;;;;;4.50;0.90;;;23.50;99.90;;;;;;5110864;27;20080;-87
2024/04/07 11:24:19;;;;;;;1.58;0.73;;;23.70;99.90;;;;;;5109836;27;20040;-81
2024/04/07 11:26:47;;;;;;;1.80;0.77;;;23.60;99.90;;;;;;5111073;27;20095;-83
2024/04/07 11:29:16;;;;;;;2.88;0.70;;;23.60;99.90;;;;;;5091322;27;20503;-82
2024/04/07 11:31:42;;;;;;;2.13;0.63;;;23.70;99.90;;;;;;5109106;27;20034;-80
2024/04/07 11:34:08;;;;;;;4.28;1.15;;;23.80;99.90;;;;;;5090174;27;20107;-79
2024/04/07 11:36:34;;;;;;;2.70;0.73;;;23.70;99.90;;;;;;5110430;27;20248;-81
2024/04/07 11:38:59;;;;;;;2.08;0.77;;;23.70;99.90;;;;;;5110961;27;20027;-79
2024/04/07 11:41:26;;;;;;;2.20;0.50;;;23.60;99.90;;;;;;5090712;28;20472;-79
2024/04/07 11:43:52;;;;;;;1.52;0.73;;;23.50;99.90;;;;;;5109104;27;20039;-80
2024/04/07 11:46:18;;;;;;;2.08;0.80;;;23.60;99.90;;;;;;5109343;27;20030;-86
2024/04/07 11:48:44;;;;;;;2.90;0.77;;;23.70;99.90;;;;;;5109380;27;20028;-77
2024/04/07 11:51:10;;;;;;;1.70;0.80;;;23.70;99.90;;;;;;5107649;27;20065;-74
2024/04/07 11:53:36;;;;;;;1.15;0.77;;;23.80;99.90;;;;;;5109698;27;20472;-80
2024/04/07 11:56:03;;;;;;;1.25;0.70;;;23.90;99.90;;;;;;5108720;27;20023;-76
2024/04/07 11:58:29;;;;;;;1.42;0.70;;;24.00;99.90;;;;;;5109901;27;20035;-79
2024/04/07 12:00:56;;;;;;;2.65;0.80;;;24.00;99.90;;;;;;5109637;27;20118;-80
2024/04/07 12:03:22;;;;;;;1.80;0.73;;;24.20;99.90;;;;;;5109967;27;20102;-74
2024/04/07 12:05:48;;;;;;;2.58;0.90;;;24.30;99.90;;;;;;5109525;27;20490;-80
2024/04/07 12:08:14;;;;;;;3.45;0.80;;;24.40;99.90;;;;;;5091375;27;20020;-77
2024/04/07 12:10:40;;;;;;;2.80;0.68;;;24.60;99.90;;;;;;5109729;27;20035;-87
2024/04/07 12:13:05;;;;;;;2.25;0.60;;;24.50;99.90;;;;;;5091222;27;20547;-87
2024/04/07 12:15:31;;;;;;;1.75;0.75;;;24.50;99.90;;;;;;5109631;27;20020;-79
2024/04/07 12:17:57;;;;;;;1.80;0.70;;;24.50;99.90;;;;;;5109442;27;20035;-80
2024/04/07 12:20:23;;;;;;;2.28;0.57;;;24.70;99.90;;;;;;5109244;27;20022;-81
2024/04/07 12:22:49;;;;;;;3.35;0.73;;;24.80;99.90;;;;;;5108945;27;20024;-83
2024/04/07 12:25:15;;;;;;;0.80;0.60;;;24.80;99.90;;;;;;5090038;27;20521;-79
2024/04/07 12:27:40;;;;;;;2.67;0.60;;;24.80;99.90;;;;;;5107889;27;20098;-76
2024/04/07 12:30:06;;;;;;;1.08;0.63;;;24.80;99.90;;;;;;5109261;27;20079;-86
2024/04/07 12:32:32;;;;;;;4.30;0.93;;;24.50;99.90;;;;;;5108814;28;20096;-87
2024/04/07 12:34:58;;;;;;;1.38;0.60;;;24.70;99.90;;;;;;5107360;27;20644;-79
2024/04/07 12:37:24;;;;;;;1.02;0.47;;;24.80;99.90;;;;;;5105011;28;20138;-81
2024/04/07 12:39:50;;;;;;;1.45;0.40;;;24.80;99.90;;;;;;5090285;28;20042;-85
2024/04/07 12:42:16;;;;;;;2.85;0.80;;;24.70;99.90;;;;;;5108126;27;20156;-84
2024/04/07 12:44:42;;;;;;;1.40;0.65;;;24.80;99.90;;;;;;5089002;28;20039;-86